createdAt,value
2022-09-28T00:00:27.959Z,100724.28
2022-09-28T00:03:18.704Z,100736.41
2022-09-28T00:06:10.974Z,100727.53
2022-09-28T00:09:03.214Z,100730.19
2022-09-28T00:11:55.017Z,100740.25
2022-09-28T00:14:46.034Z,100730.69
2022-09-28T00:17:37.807Z,100728.59
2022-09-28T00:20:31.230Z,100727.81
2022-09-28T00:23:21.771Z,100728.84
2022-09-28T00:26:11.968Z,100719.88
2022-09-28T00:29:03.791Z,100727.91
2022-09-28T00:32:03.704Z,100725.94
2022-09-28T00:34:54.745Z,100725.00
2022-09-28T00:37:44.899Z,100723.91
2022-09-28T00:40:35.274Z,100722.78
2022-09-28T00:43:26.886Z,100724.34
2022-09-28T00:46:24.308Z,100727.69
2022-09-28T00:49:18.745Z,100731.06
2022-09-28T00:52:12.555Z,100735.03
2022-09-28T00:55:04.099Z,100735.69
2022-09-28T00:57:59.610Z,100732.34
2022-09-28T01:00:50.968Z,100738.75
2022-09-28T01:03:46.689Z,100730.50
2022-09-28T01:06:38.608Z,100738.06
2022-09-28T01:09:30.305Z,100741.84
2022-09-28T01:12:20.922Z,100741.47
2022-09-28T01:15:13.100Z,100744.00
2022-09-28T01:18:15.709Z,100742.63
2022-09-28T01:21:19.186Z,100739.28
2022-09-28T01:24:14.761Z,100747.38
2022-09-28T01:27:14.925Z,100745.66
2022-09-28T01:30:20.522Z,100747.22
2022-09-28T01:33:15.306Z,100752.63
2022-09-28T01:36:13.580Z,100749.50
2022-09-28T01:39:12.163Z,100760.00
2022-09-28T01:42:08.147Z,100746.97
2022-09-28T01:45:02.991Z,100746.84
2022-09-28T01:47:54.543Z,100736.88
2022-09-28T01:50:49.382Z,100744.69
2022-09-28T01:53:46.723Z,100735.00
2022-09-28T01:56:52.469Z,100737.13
2022-09-28T01:59:48.838Z,100735.91
2022-09-28T02:02:52.531Z,100756.13
2022-09-28T02:06:02.258Z,100718.50
2022-09-28T02:08:56.724Z,100731.13
2022-09-28T02:12:02.441Z,100719.97
2022-09-28T02:14:57.458Z,100715.25
2022-09-28T02:17:48.365Z,100718.41
2022-09-28T02:20:43.552Z,100712.19
2022-09-28T02:23:37.644Z,100712.47
2022-09-28T02:26:33.991Z,100714.78
2022-09-28T02:29:25.050Z,100697.78
2022-09-28T02:32:18.129Z,100697.66
2022-09-28T02:35:19.318Z,100690.19
2022-09-28T02:38:12.900Z,100694.19
2022-09-28T02:41:24.356Z,100690.50
2022-09-28T02:44:36.551Z,100693.41
2022-09-28T02:47:30.044Z,100691.78
2022-09-28T02:50:50.524Z,100687.69
2022-09-28T02:54:18.551Z,100680.28
2022-09-28T02:57:29.189Z,100686.91
2022-09-28T03:00:24.661Z,100687.28
2022-09-28T03:03:41.185Z,100688.56
2022-09-28T03:06:38.982Z,100695.63
2022-09-28T03:09:41.194Z,100681.97
2022-09-28T03:12:32.853Z,100676.41
2022-09-28T03:15:29.818Z,100675.38
2022-09-28T03:18:20.645Z,100670.16
2022-09-28T03:21:15.281Z,100667.34
2022-09-28T03:24:07.916Z,100658.19
2022-09-28T03:26:58.439Z,100662.56
2022-09-28T03:29:49.326Z,100650.94
2022-09-28T03:32:40.056Z,100661.75
2022-09-28T03:35:30.764Z,100651.22
2022-09-28T03:38:22.452Z,100651.44
2022-09-28T03:41:15.795Z,100659.72
2022-09-28T03:44:06.472Z,100632.72
2022-09-28T03:46:56.570Z,100628.56
2022-09-28T03:49:47.599Z,100624.59
2022-09-28T03:52:37.729Z,100630.66
2022-09-28T03:55:33.017Z,100626.50
2022-09-28T03:58:26.233Z,100626.50
2022-09-28T04:01:20.659Z,100620.47
2022-09-28T04:04:15.901Z,100606.97
2022-09-28T04:07:06.427Z,100606.13
2022-09-28T04:09:57.155Z,100600.72
2022-09-28T04:12:48.228Z,100596.13
2022-09-28T04:15:40.004Z,100599.03
2022-09-28T04:18:40.746Z,100581.31
2022-09-28T04:21:50.088Z,100579.84
2022-09-28T04:24:41.627Z,100581.50
2022-09-28T04:27:50.523Z,100565.00
2022-09-28T04:30:50.429Z,100561.88
2022-09-28T04:33:40.716Z,100551.03
2022-09-28T04:36:31.415Z,100551.44
2022-09-28T04:39:25.534Z,100555.81
2022-09-28T04:42:19.832Z,100545.59
2022-09-28T04:45:13.358Z,100538.47
2022-09-28T04:48:09.539Z,100533.47
2022-09-28T04:51:25.303Z,100535.94
2022-09-28T04:54:16.000Z,100522.38
2022-09-28T04:57:07.560Z,100529.22
2022-09-28T04:59:58.164Z,100511.69
2022-09-28T05:02:49.066Z,100515.00
2022-09-28T05:05:59.151Z,100510.44
2022-09-28T05:09:08.815Z,100515.22
2022-09-28T05:11:59.309Z,100504.16
2022-09-28T05:14:51.858Z,100491.44
2022-09-28T05:17:42.204Z,100492.88
2022-09-28T05:20:45.205Z,100474.28
2022-09-28T05:23:35.180Z,100478.22
2022-09-28T05:26:26.775Z,100460.69
2022-09-28T05:29:17.883Z,100459.81
2022-09-28T05:32:08.754Z,100465.25
2022-09-28T05:35:07.823Z,100466.72
2022-09-28T05:38:07.220Z,100463.31
2022-09-28T05:41:03.145Z,100452.66
2022-09-28T05:43:56.467Z,100446.34
2022-09-28T05:46:46.370Z,100438.38
2022-09-28T05:49:37.622Z,100432.50
2022-09-28T05:52:30.803Z,100443.50
2022-09-28T05:55:22.930Z,100428.84
2022-09-28T05:58:12.687Z,100420.22
2022-09-28T06:01:03.006Z,100418.09
2022-09-28T06:03:54.055Z,100418.69
2022-09-28T06:06:45.275Z,100423.44
2022-09-28T06:09:35.798Z,100414.47
2022-09-28T06:12:38.084Z,100412.13
2022-09-28T06:15:38.565Z,100405.50
2022-09-28T06:18:28.622Z,100414.19
2022-09-28T06:21:43.942Z,100423.38
2022-09-28T06:24:34.439Z,100427.75
2022-09-28T06:27:26.802Z,100429.72
2022-09-28T06:30:17.878Z,100435.66
2022-09-28T06:33:09.877Z,100438.25
2022-09-28T06:36:02.277Z,100430.81
2022-09-28T06:38:52.688Z,100436.38
2022-09-28T06:41:43.816Z,100437.69
2022-09-28T06:44:37.284Z,100439.81
2022-09-28T06:47:45.535Z,100425.25
2022-09-28T06:50:53.574Z,100435.53
2022-09-28T06:53:50.987Z,100433.88
2022-09-28T06:56:55.968Z,100437.47
2022-09-28T06:59:46.907Z,100432.72
2022-09-28T07:02:38.162Z,100433.75
2022-09-28T07:05:49.952Z,100434.63
2022-09-28T07:09:25.295Z,100427.56
2022-09-28T07:12:37.538Z,100425.53
2022-09-28T07:15:45.033Z,100415.09
2022-09-28T07:18:40.558Z,100412.56
2022-09-28T07:21:33.033Z,100410.72
2022-09-28T07:24:25.204Z,100412.63
2022-09-28T07:27:44.230Z,100409.28
2022-09-28T07:30:39.581Z,100408.06
2022-09-28T07:33:40.425Z,100414.72
2022-09-28T07:36:58.580Z,100423.09
2022-09-28T07:40:07.521Z,100443.09
2022-09-28T07:43:07.135Z,100441.25
2022-09-28T07:45:58.157Z,100459.41
2022-09-28T07:48:48.563Z,100453.19
2022-09-28T07:51:57.870Z,100441.34
2022-09-28T07:54:53.511Z,100438.63
2022-09-28T07:58:06.632Z,100442.34
2022-09-28T08:01:33.401Z,100447.56
2022-09-28T08:04:25.221Z,100454.03
2022-09-28T08:07:23.631Z,100470.28
2022-09-28T08:10:24.112Z,100486.94
2022-09-28T08:13:40.941Z,100480.72
2022-09-28T08:16:57.579Z,100482.00
2022-09-28T08:20:30.145Z,100482.59
2022-09-28T08:23:24.571Z,100492.81
2022-09-28T08:26:15.876Z,100488.22
2022-09-28T08:29:08.385Z,100484.47
2022-09-28T08:32:22.363Z,100481.16
2022-09-28T08:35:40.191Z,100487.81
2022-09-28T08:38:36.561Z,100491.56
2022-09-28T08:41:51.252Z,100490.75
2022-09-28T08:44:50.592Z,100500.72
2022-09-28T08:48:26.079Z,100503.22
2022-09-28T08:51:51.930Z,100504.88
2022-09-28T08:54:58.302Z,100519.88
2022-09-28T08:58:10.874Z,100526.31
2022-09-28T09:01:02.816Z,100539.84
2022-09-28T09:03:53.818Z,100544.00
2022-09-28T09:07:09.073Z,100554.84
2022-09-28T09:10:09.515Z,100548.97
2022-09-28T09:13:23.218Z,100555.88
2022-09-28T09:16:42.605Z,100551.50
2022-09-28T09:20:01.781Z,100549.81
2022-09-28T09:23:22.217Z,100557.69
2022-09-28T09:26:23.697Z,100563.13
2022-09-28T09:29:34.981Z,100567.06
2022-09-28T09:32:56.377Z,100565.19
2022-09-28T09:36:09.140Z,100568.06
2022-09-28T09:39:53.029Z,100583.03
2022-09-28T09:43:52.127Z,100595.03
2022-09-28T09:47:09.431Z,100595.28
2022-09-28T09:50:52.860Z,100600.31
2022-09-28T09:53:49.704Z,100607.78
2022-09-28T09:56:59.444Z,100607.16
2022-09-28T10:00:21.948Z,100611.66
2022-09-28T10:03:30.911Z,100624.16
2022-09-28T10:06:37.825Z,100631.38
2022-09-28T10:09:48.775Z,100644.50
2022-09-28T10:12:55.333Z,100656.97
2022-09-28T10:15:48.983Z,100665.28
2022-09-28T10:18:47.043Z,100670.44
2022-09-28T10:22:09.082Z,100675.84
2022-09-28T10:25:01.850Z,100686.88
2022-09-28T10:27:54.053Z,100693.50
2022-09-28T10:30:46.267Z,100708.44
2022-09-28T10:33:37.852Z,100714.22
2022-09-28T10:36:31.482Z,100719.16
2022-09-28T10:39:37.980Z,100732.78
2022-09-28T10:42:33.355Z,100730.19
2022-09-28T10:45:26.064Z,100722.22
2022-09-28T10:48:24.927Z,100724.03
2022-09-28T10:51:14.627Z,100716.88
2022-09-28T10:54:07.828Z,100722.41
2022-09-28T10:57:31.110Z,100716.09
2022-09-28T11:00:52.431Z,100704.47
2022-09-28T11:04:01.239Z,100702.38
2022-09-28T11:06:52.411Z,100701.47
2022-09-28T11:09:47.706Z,100695.16
2022-09-28T11:12:49.480Z,100697.28
2022-09-28T11:15:44.411Z,100688.66
2022-09-28T11:18:44.742Z,100708.91
2022-09-28T11:21:47.593Z,100702.22
2022-09-28T11:24:38.830Z,100704.56
2022-09-28T11:27:29.760Z,100711.53
2022-09-28T11:30:34.982Z,100725.09
2022-09-28T11:33:49.684Z,100738.56
2022-09-28T11:37:28.588Z,100750.44
2022-09-28T11:40:35.634Z,100740.03
2022-09-28T11:43:52.186Z,100744.66
2022-09-28T11:47:07.094Z,100752.06
2022-09-28T11:50:20.050Z,100757.09
2022-09-28T11:53:43.148Z,100771.31
2022-09-28T11:56:41.440Z,100772.81
2022-09-28T11:59:50.039Z,100774.13
2022-09-28T12:03:06.642Z,100782.88
2022-09-28T12:06:03.909Z,100779.50
2022-09-28T12:09:02.577Z,100779.50
2022-09-28T12:12:36.281Z,100781.13
2022-09-28T12:15:59.213Z,100777.09
2022-09-28T12:18:53.692Z,100777.53
2022-09-28T12:21:52.742Z,100794.56
2022-09-28T12:24:51.011Z,100789.47
2022-09-28T12:28:14.234Z,100786.66
2022-09-28T12:31:19.806Z,100802.13
2022-09-28T12:34:16.794Z,100808.19
2022-09-28T12:37:43.757Z,100814.34
2022-09-28T12:40:42.304Z,100818.88
2022-09-28T12:43:41.985Z,100818.88
2022-09-28T12:46:49.145Z,100818.50
2022-09-28T12:53:08.733Z,100827.91
2022-09-28T12:56:30.979Z,100832.94
2022-09-28T12:59:27.444Z,100828.56
2022-09-28T13:02:42.998Z,100828.56
2022-09-28T13:06:18.546Z,100843.81
2022-09-28T13:09:29.375Z,100843.63
2022-09-28T13:12:28.791Z,100844.00
2022-09-28T13:15:38.606Z,100841.47
2022-09-28T13:18:36.817Z,100849.03
2022-09-28T13:21:40.557Z,100840.66
2022-09-28T13:24:37.187Z,100844.19
2022-09-28T13:27:46.776Z,100853.94
2022-09-28T13:30:41.344Z,100857.13
2022-09-28T13:33:40.147Z,100861.88
2022-09-28T13:36:31.748Z,100868.28
2022-09-28T13:39:47.814Z,100872.94
2022-09-28T13:42:52.498Z,100876.00
2022-09-28T13:45:55.160Z,100891.19
2022-09-28T13:49:13.955Z,100889.50
2022-09-28T13:53:05.549Z,100884.13
2022-09-28T13:56:29.837Z,100884.13
2022-09-28T13:59:31.581Z,100870.50
2022-09-28T14:02:35.746Z,100882.25
2022-09-28T14:05:28.800Z,100880.56
2022-09-28T14:08:44.852Z,100872.66
2022-09-28T14:11:40.814Z,100872.19
2022-09-28T14:14:49.570Z,100869.22
2022-09-28T14:18:25.238Z,100871.09
2022-09-28T14:21:33.762Z,100879.53
2022-09-28T14:24:46.432Z,100881.97
2022-09-28T14:28:12.972Z,100878.72
2022-09-28T14:31:16.891Z,100887.00
2022-09-28T14:34:29.504Z,100883.72
2022-09-28T14:37:59.012Z,100879.19
2022-09-28T14:41:11.769Z,100877.50
2022-09-28T14:44:06.762Z,100875.53
2022-09-28T14:47:40.446Z,100868.75
2022-09-28T14:50:31.461Z,100867.00
2022-09-28T14:53:26.242Z,100864.09
2022-09-28T14:56:16.611Z,100861.41
2022-09-28T14:59:08.716Z,100859.94
2022-09-28T15:02:07.854Z,100855.34
2022-09-28T15:05:26.682Z,100853.97
2022-09-28T15:08:24.186Z,100860.94
2022-09-28T15:11:29.972Z,100860.75
2022-09-28T15:14:20.471Z,100852.38
2022-09-28T15:17:16.508Z,100844.94
2022-09-28T15:20:26.052Z,100842.59
2022-09-28T15:23:38.896Z,100843.25
2022-09-28T15:26:35.007Z,100833.81
2022-09-28T15:29:28.630Z,100826.09
2022-09-28T15:32:29.446Z,100819.03
2022-09-28T15:35:27.674Z,100817.84
2022-09-28T15:38:19.019Z,100817.00
2022-09-28T15:41:12.370Z,100808.25
2022-09-28T15:44:21.607Z,100805.00
2022-09-28T15:47:26.826Z,100796.53
2022-09-28T15:50:47.214Z,100804.53
2022-09-28T15:53:37.929Z,100796.81
2022-09-28T15:56:28.768Z,100794.09
2022-09-28T15:59:18.971Z,100792.44
2022-09-28T16:02:27.487Z,100790.38
2022-09-28T16:05:38.184Z,100789.38
2022-09-28T16:08:49.915Z,100784.16
2022-09-28T16:11:42.073Z,100782.00
2022-09-28T16:14:35.882Z,100778.28
2022-09-28T16:17:36.235Z,100779.31
2022-09-28T16:20:30.800Z,100780.53
2022-09-28T16:23:32.341Z,100778.66
2022-09-28T16:26:37.149Z,100776.63
2022-09-28T16:29:29.741Z,100777.38
2022-09-28T16:32:29.304Z,100780.72
2022-09-28T16:35:30.470Z,100778.38
2022-09-28T16:38:21.441Z,100771.97
2022-09-28T16:41:12.143Z,100770.66
2022-09-28T16:44:03.732Z,100767.97
2022-09-28T16:46:57.369Z,100771.31
2022-09-28T16:49:49.352Z,100767.31
2022-09-28T16:53:00.048Z,100770.41
2022-09-28T16:55:54.965Z,100767.41
2022-09-28T16:58:50.764Z,100762.41
2022-09-28T17:01:44.950Z,100758.75
2022-09-28T17:04:35.057Z,100746.31
2022-09-28T17:07:25.797Z,100749.00
2022-09-28T17:11:09.825Z,100754.56
2022-09-28T17:14:00.266Z,100745.28
2022-09-28T17:17:08.153Z,100733.19
2022-09-28T17:20:01.221Z,100733.19
2022-09-28T17:22:55.056Z,100734.88
2022-09-28T17:25:46.878Z,100730.31
2022-09-28T17:28:38.472Z,100732.25
2022-09-28T17:31:32.331Z,100724.81
2022-09-28T17:34:22.787Z,100728.16
2022-09-28T17:37:16.723Z,100735.97
2022-09-28T17:40:21.703Z,100732.72
2022-09-28T17:43:11.962Z,100732.91
2022-09-28T17:46:02.504Z,100737.63
2022-09-28T17:48:55.551Z,100730.28
2022-09-28T17:51:45.691Z,100735.66
2022-09-28T17:54:36.135Z,100734.28
2022-09-28T17:57:28.163Z,100729.56
2022-09-28T18:00:19.112Z,100726.00
2022-09-28T18:03:18.652Z,100720.81
2022-09-28T18:06:16.099Z,100712.91
2022-09-28T18:09:07.143Z,100719.50
2022-09-28T18:12:08.832Z,100711.06
2022-09-28T18:15:01.824Z,100713.25
2022-09-28T18:17:53.073Z,100709.75
2022-09-28T18:20:43.514Z,100705.19
2022-09-28T18:23:38.254Z,100701.38
2022-09-28T18:26:28.095Z,100702.03
2022-09-28T18:29:33.489Z,100699.34
2022-09-28T18:32:25.045Z,100691.25
2022-09-28T18:35:15.902Z,100693.75
2022-09-28T18:38:10.689Z,100693.09
2022-09-28T18:41:11.827Z,100700.00
2022-09-28T18:44:07.307Z,100706.41
2022-09-28T18:47:01.547Z,100702.19
2022-09-28T18:49:55.115Z,100703.06
2022-09-28T18:52:46.625Z,100702.56
2022-09-28T18:55:38.067Z,100696.34
2022-09-28T18:58:31.732Z,100694.31
2022-09-28T19:01:31.726Z,100699.69
2022-09-28T19:04:24.606Z,100705.09
2022-09-28T19:07:15.234Z,100694.69
2022-09-28T19:10:06.846Z,100691.97
2022-09-28T19:12:57.181Z,100693.34
2022-09-28T19:15:47.382Z,100683.91
2022-09-28T19:18:41.537Z,100679.53
2022-09-28T19:21:32.093Z,100681.22
2022-09-28T19:24:22.612Z,100680.56
2022-09-28T19:27:15.852Z,100684.28
2022-09-28T19:30:06.418Z,100685.25
2022-09-28T19:32:57.764Z,100682.56
2022-09-28T19:35:57.804Z,100686.09
2022-09-28T19:38:48.470Z,100696.59
2022-09-28T19:41:47.358Z,100690.81
2022-09-28T19:44:38.678Z,100688.31
2022-09-28T19:47:29.614Z,100677.91
2022-09-28T19:50:19.868Z,100682.91
2022-09-28T19:53:10.549Z,100683.28
2022-09-28T19:56:09.886Z,100686.63
2022-09-28T19:59:03.468Z,100701.97
2022-09-28T20:01:57.550Z,100707.88
2022-09-28T20:04:51.128Z,100711.22
2022-09-28T20:07:42.623Z,100716.59
2022-09-28T20:10:33.109Z,100708.53
2022-09-28T20:13:24.067Z,100712.97
2022-09-28T20:16:19.390Z,100720.03
2022-09-28T20:19:13.238Z,100722.19
2022-09-28T20:22:04.780Z,100727.75
2022-09-28T20:24:55.698Z,100730.44
2022-09-28T20:27:45.590Z,100728.75
2022-09-28T20:30:39.823Z,100737.84
2022-09-28T20:33:29.921Z,100737.84
2022-09-28T20:36:22.931Z,100744.44
2022-09-28T20:39:24.827Z,100749.31
2022-09-28T20:42:17.093Z,100757.41
2022-09-28T20:45:07.862Z,100758.41
2022-09-28T20:47:58.133Z,100759.44
2022-09-28T20:50:48.342Z,100768.88
2022-09-28T20:53:40.187Z,100765.38
2022-09-28T20:56:40.050Z,100757.66
2022-09-28T20:59:32.658Z,100763.84
2022-09-28T21:02:23.738Z,100766.38
2022-09-28T21:06:12.269Z,100759.63
2022-09-28T21:09:03.404Z,100775.63
2022-09-28T21:11:54.245Z,100772.78
2022-09-28T21:14:44.853Z,100786.03
2022-09-28T21:17:35.453Z,100778.16
2022-09-28T21:20:25.781Z,100781.03
2022-09-28T21:23:18.259Z,100785.22
2022-09-28T21:26:20.015Z,100785.94
2022-09-28T21:29:14.499Z,100802.56
2022-09-28T21:32:05.619Z,100802.56
2022-09-28T21:34:59.680Z,100810.63
2022-09-28T21:37:50.068Z,100811.63
2022-09-28T21:40:40.561Z,100813.81
2022-09-28T21:43:33.028Z,100820.38
2022-09-28T21:46:23.589Z,100827.78
2022-09-28T21:49:15.583Z,100829.81
2022-09-28T21:52:05.606Z,100830.66
2022-09-28T21:54:59.030Z,100833.53
2022-09-28T21:57:51.996Z,100839.25
2022-09-28T22:00:42.086Z,100839.91
2022-09-28T22:03:33.534Z,100842.59
2022-09-28T22:06:26.239Z,100843.94
2022-09-28T22:09:16.959Z,100847.63
2022-09-28T22:12:07.335Z,100840.56
2022-09-28T22:14:58.355Z,100841.91
2022-09-28T22:17:51.578Z,100846.63
2022-09-28T22:20:43.220Z,100849.66
2022-09-28T22:23:33.908Z,100843.13
2022-09-28T22:26:29.083Z,100853.69
2022-09-28T22:29:19.076Z,100865.66
2022-09-28T22:32:11.714Z,100863.31
2022-09-28T22:35:03.180Z,100871.19
2022-09-28T22:37:53.654Z,100879.28
2022-09-28T22:40:59.647Z,100876.22
2022-09-28T22:43:51.568Z,100874.09
2022-09-28T22:46:42.754Z,100876.78
2022-09-28T22:49:33.185Z,100871.19
2022-09-28T22:52:24.141Z,100882.31
2022-09-28T22:55:15.316Z,100885.66
2022-09-28T22:58:05.196Z,100881.81
2022-09-28T23:00:58.396Z,100884.84
2022-09-28T23:03:49.338Z,100884.84
2022-09-28T23:06:42.630Z,100885.66
2022-09-28T23:09:33.221Z,100881.28
2022-09-28T23:12:23.665Z,100875.88
2022-09-28T23:15:15.061Z,100881.28
2022-09-28T23:18:05.328Z,100879.59
2022-09-28T23:20:57.599Z,100882.25
2022-09-28T23:23:49.230Z,100889.97
2022-09-28T23:26:39.341Z,100885.25
2022-09-28T23:29:30.117Z,100882.91
2022-09-28T23:32:20.860Z,100881.91
2022-09-28T23:35:11.479Z,100887.94
2022-09-28T23:38:02.323Z,100893.34
2022-09-28T23:40:52.606Z,100895.50
2022-09-28T23:43:42.369Z,100894.31
2022-09-28T23:46:33.152Z,100902.38
2022-09-28T23:49:24.134Z,100908.28
2022-09-28T23:52:15.053Z,100897.84
2022-09-28T23:55:06.130Z,100897.66
2022-09-28T23:57:57.966Z,100904.72
